sensor_id;sensor_type;location;lat;lon;timestamp;pressure;altitude;pressure_sealevel;temperature;humidity
43217;BME280;60511;42.686;23.300;2023-03-31T00:00:27;94687.16;;;22.82;26.79
43217;BME280;60511;42.686;23.300;2023-03-31T00:02:27;94676.38;;;22.82;26.83
43217;BME280;60511;42.686;23.300;2023-03-31T00:04:29;94677.53;;;22.81;26.82
43217;BME280;60511;42.686;23.300;2023-03-31T00:06:33;94619.59;;;22.46;26.78
43217;BME280;60511;42.686;23.300;2023-03-31T00:08:37;94684.03;;;22.80;26.81
43217;BME280;60511;42.686;23.300;2023-03-31T00:10:44;94670.91;;;22.78;26.85
43217;BME280;60511;42.686;23.300;2023-03-31T00:12:45;94680.47;;;22.76;26.58
43217;BME280;60511;42.686;23.300;2023-03-31T00:14:46;94685.09;;;22.75;26.65
43217;BME280;60511;42.686;23.300;2023-03-31T00:16:46;94671.50;;;22.72;26.66
43217;BME280;60511;42.686;23.300;2023-03-31T00:18:47;94612.91;;;22.40;26.85
43217;BME280;60511;42.686;23.300;2023-03-31T00:20:50;94665.75;;;22.73;26.91
43217;BME280;60511;42.686;23.300;2023-03-31T00:22:52;94670.03;;;22.74;26.93
43217;BME280;60511;42.686;23.300;2023-03-31T00:24:53;94626.94;;;22.46;26.79
43217;BME280;60511;42.686;23.300;2023-03-31T00:26:54;94624.03;;;22.39;26.88
43217;BME280;60511;42.686;23.300;2023-03-31T00:28:55;94655.31;;;22.56;26.99
43217;BME280;60511;42.686;23.300;2023-03-31T00:30:59;94589.38;;;22.25;26.86
43217;BME280;60511;42.686;23.300;2023-03-31T00:33:00;94634.75;;;22.51;26.99
43217;BME280;60511;42.686;23.300;2023-03-31T00:35:01;94621.59;;;22.34;26.98
43217;BME280;60511;42.686;23.300;2023-03-31T00:37:02;94658.19;;;22.63;26.86
43217;BME280;60511;42.686;23.300;2023-03-31T00:39:05;94659.38;;;22.65;27.21
43217;BME280;60511;42.686;23.300;2023-03-31T00:41:08;94656.69;;;22.65;27.05
43217;BME280;60511;42.686;23.300;2023-03-31T00:43:36;94572.13;;;22.14;27.08
43217;BME280;60511;42.686;23.300;2023-03-31T00:45:35;94658.94;;;22.63;26.89
43217;BME280;60511;42.686;23.300;2023-03-31T00:47:35;94635.88;;;22.50;26.93
43217;BME280;60511;42.686;23.300;2023-03-31T00:49:47;94618.19;;;22.37;27.25
43217;BME280;60511;42.686;23.300;2023-03-31T00:51:50;94604.72;;;22.37;26.98
43217;BME280;60511;42.686;23.300;2023-03-31T00:53:55;94645.84;;;22.62;27.39
43217;BME280;60511;42.686;23.300;2023-03-31T00:56:04;94645.03;;;22.61;27.28
43217;BME280;60511;42.686;23.300;2023-03-31T00:58:08;94600.91;;;22.38;27.17
43217;BME280;60511;42.686;23.300;2023-03-31T01:00:14;94570.88;;;22.23;27.14
43217;BME280;60511;42.686;23.300;2023-03-31T01:02:16;94602.13;;;22.40;27.30
43217;BME280;60511;42.686;23.300;2023-03-31T01:04:19;94631.53;;;22.61;27.39
43217;BME280;60511;42.686;23.300;2023-03-31T01:06:22;94579.59;;;22.20;27.19
43217;BME280;60511;42.686;23.300;2023-03-31T01:08:25;94636.16;;;22.61;27.25
43217;BME280;60511;42.686;23.300;2023-03-31T01:10:27;94552.38;;;22.10;27.44
43217;BME280;60511;42.686;23.300;2023-03-31T01:12:29;94515.56;;;21.85;27.56
43217;BME280;60511;42.686;23.300;2023-03-31T01:14:31;94628.06;;;22.61;27.60
43217;BME280;60511;42.686;23.300;2023-03-31T01:16:32;94603.44;;;22.46;27.48
43217;BME280;60511;42.686;23.300;2023-03-31T01:18:33;94559.00;;;22.12;27.49
43217;BME280;60511;42.686;23.300;2023-03-31T01:26:07;94623.19;;;22.51;27.47
43217;BME280;60511;42.686;23.300;2023-03-31T01:32:55;94629.88;;;22.57;27.59
43217;BME280;60511;42.686;23.300;2023-03-31T01:40:49;94645.19;;;22.53;27.60
43217;BME280;60511;42.686;23.300;2023-03-31T01:45:05;94615.94;;;22.39;27.65
43217;BME280;60511;42.686;23.300;2023-03-31T01:47:13;94655.97;;;22.53;27.86
43217;BME280;60511;42.686;23.300;2023-03-31T01:56:37;94656.44;;;22.55;27.51
43217;BME280;60511;42.686;23.300;2023-03-31T02:01:05;94671.38;;;22.52;27.62
43217;BME280;60511;42.686;23.300;2023-03-31T02:03:30;94657.91;;;22.52;27.61
43217;BME280;60511;42.686;23.300;2023-03-31T02:05:41;94585.13;;;21.96;27.68
43217;BME280;60511;42.686;23.300;2023-03-31T02:07:49;94665.13;;;22.48;27.88
43217;BME280;60511;42.686;23.300;2023-03-31T02:09:57;94615.69;;;22.16;27.68
43217;BME280;60511;42.686;23.300;2023-03-31T02:12:03;94665.22;;;22.52;27.76
43217;BME280;60511;42.686;23.300;2023-03-31T02:14:09;94672.16;;;22.53;27.62
43217;BME280;60511;42.686;23.300;2023-03-31T02:16:17;94681.84;;;22.54;27.54
43217;BME280;60511;42.686;23.300;2023-03-31T02:18:23;94686.44;;;22.53;27.79
43217;BME280;60511;42.686;23.300;2023-03-31T02:20:27;94607.78;;;22.07;27.99
43217;BME280;60511;42.686;23.300;2023-03-31T02:22:30;94697.94;;;22.50;27.86
43217;BME280;60511;42.686;23.300;2023-03-31T02:24:31;94687.91;;;22.51;28.03
43217;BME280;60511;42.686;23.300;2023-03-31T02:26:41;94661.84;;;22.14;27.93
43217;BME280;60511;42.686;23.300;2023-03-31T02:28:45;94708.72;;;22.50;28.07
43217;BME280;60511;42.686;23.300;2023-03-31T02:33:05;94704.81;;;22.48;27.83
43217;BME280;60511;42.686;23.300;2023-03-31T02:35:08;94702.53;;;22.50;27.95
43217;BME280;60511;42.686;23.300;2023-03-31T02:37:10;94689.56;;;22.27;27.76
43217;BME280;60511;42.686;23.300;2023-03-31T02:39:15;94696.34;;;22.49;27.92
43217;BME280;60511;42.686;23.300;2023-03-31T02:41:17;94693.47;;;22.42;27.72
43217;BME280;60511;42.686;23.300;2023-03-31T02:43:17;94588.91;;;21.79;27.96
43217;BME280;60511;42.686;23.300;2023-03-31T02:47:37;94683.41;;;22.26;27.93
43217;BME280;60511;42.686;23.300;2023-03-31T02:49:40;94695.56;;;22.49;27.85
43217;BME280;60511;42.686;23.300;2023-03-31T02:51:57;94686.00;;;22.51;27.73
43217;BME280;60511;42.686;23.300;2023-03-31T02:58:34;94607.47;;;21.96;27.96
43217;BME280;60511;42.686;23.300;2023-03-31T03:03:39;94665.56;;;22.50;27.59
43217;BME280;60511;42.686;23.300;2023-03-31T03:10:12;94651.28;;;22.50;27.69
43217;BME280;60511;42.686;23.300;2023-03-31T03:12:23;94651.44;;;22.41;27.59
43217;BME280;60511;42.686;23.300;2023-03-31T03:14:35;94648.06;;;22.44;27.51
43217;BME280;60511;42.686;23.300;2023-03-31T03:16:43;94649.63;;;22.45;28.07
43217;BME280;60511;42.686;23.300;2023-03-31T03:18:55;94643.53;;;22.48;27.85
43217;BME280;60511;42.686;23.300;2023-03-31T03:20:56;94591.78;;;22.14;27.58
43217;BME280;60511;42.686;23.300;2023-03-31T03:22:56;94521.28;;;21.68;27.68
43217;BME280;60511;42.686;23.300;2023-03-31T03:24:56;94650.41;;;22.45;27.51
43217;BME280;60511;42.686;23.300;2023-03-31T03:26:57;94588.19;;;22.10;28.10
43217;BME280;60511;42.686;23.300;2023-03-31T03:28:57;94600.63;;;22.15;28.00
43217;BME280;60511;42.686;23.300;2023-03-31T03:30:58;94641.53;;;22.45;27.78
43217;BME280;60511;42.686;23.300;2023-03-31T03:32:59;94647.72;;;22.45;27.69
43217;BME280;60511;42.686;23.300;2023-03-31T03:35:01;94633.88;;;22.47;28.27
43217;BME280;60511;42.686;23.300;2023-03-31T03:37:01;94551.66;;;21.97;27.82
43217;BME280;60511;42.686;23.300;2023-03-31T03:39:03;94630.72;;;22.45;27.99
43217;BME280;60511;42.686;23.300;2023-03-31T03:41:04;94629.63;;;22.46;28.08
43217;BME280;60511;42.686;23.300;2023-03-31T03:43:05;94623.09;;;22.47;27.85
43217;BME280;60511;42.686;23.300;2023-03-31T03:45:06;94623.44;;;22.45;27.93
43217;BME280;60511;42.686;23.300;2023-03-31T03:47:07;94590.41;;;22.20;28.01
43217;BME280;60511;42.686;23.300;2023-03-31T03:49:07;94592.50;;;22.27;28.00
43217;BME280;60511;42.686;23.300;2023-03-31T03:51:08;94624.56;;;22.44;28.04
43217;BME280;60511;42.686;23.300;2023-03-31T03:53:08;94620.38;;;22.47;28.13
43217;BME280;60511;42.686;23.300;2023-03-31T03:55:09;94582.91;;;22.14;28.05
43217;BME280;60511;42.686;23.300;2023-03-31T03:57:11;94568.06;;;22.20;28.02
43217;BME280;60511;42.686;23.300;2023-03-31T03:59:11;94618.50;;;22.48;27.70
43217;BME280;60511;42.686;23.300;2023-03-31T04:01:12;94621.19;;;22.48;27.95
43217;BME280;60511;42.686;23.300;2023-03-31T04:03:13;94589.94;;;22.18;27.80
43217;BME280;60511;42.686;23.300;2023-03-31T04:05:14;94632.75;;;22.48;27.78
43217;BME280;60511;42.686;23.300;2023-03-31T04:07:14;94636.22;;;22.49;27.77
43217;BME280;60511;42.686;23.300;2023-03-31T04:09:15;94643.22;;;22.50;27.94
43217;BME280;60511;42.686;23.300;2023-03-31T04:11:17;94630.41;;;22.46;27.92
43217;BME280;60511;42.686;23.300;2023-03-31T04:13:18;94624.22;;;22.46;27.86
43217;BME280;60511;42.686;23.300;2023-03-31T04:15:19;94627.69;;;22.46;28.11
43217;BME280;60511;42.686;23.300;2023-03-31T04:17:20;94638.06;;;22.44;27.91
43217;BME280;60511;42.686;23.300;2023-03-31T04:19:31;94564.22;;;22.05;28.07
43217;BME280;60511;42.686;23.300;2023-03-31T04:21:32;94581.31;;;22.13;28.04
43217;BME280;60511;42.686;23.300;2023-03-31T04:23:35;94649.63;;;22.45;27.86
43217;BME280;60511;42.686;23.300;2023-03-31T04:25:45;94609.84;;;22.26;27.75
43217;BME280;60511;42.686;23.300;2023-03-31T04:27:50;94628.84;;;22.45;28.15
43217;BME280;60511;42.686;23.300;2023-03-31T04:29:53;94608.63;;;22.23;28.06
43217;BME280;60511;42.686;23.300;2023-03-31T04:31:54;94497.97;;;21.60;28.11
43217;BME280;60511;42.686;23.300;2023-03-31T04:33:58;94629.97;;;22.44;28.18
43217;BME280;60511;42.686;23.300;2023-03-31T04:36:06;94578.78;;;22.04;28.09
43217;BME280;60511;42.686;23.300;2023-03-31T04:38:21;94602.19;;;22.28;28.13
43217;BME280;60511;42.686;23.300;2023-03-31T04:40:21;94633.09;;;22.46;27.84
43217;BME280;60511;42.686;23.300;2023-03-31T04:42:22;94623.44;;;22.45;27.97
43217;BME280;60511;42.686;23.300;2023-03-31T04:44:23;94628.84;;;22.45;28.05
43217;BME280;60511;42.686;23.300;2023-03-31T04:46:24;94608.78;;;22.31;28.02
43217;BME280;60511;42.686;23.300;2023-03-31T04:48:24;94620.75;;;22.45;27.90
43217;BME280;60511;42.686;23.300;2023-03-31T04:50:24;94631.53;;;22.45;28.16
43217;BME280;60511;42.686;23.300;2023-03-31T04:52:25;94615.69;;;22.44;28.31
43217;BME280;60511;42.686;23.300;2023-03-31T04:54:25;94613.00;;;22.44;28.07
43217;BME280;60511;42.686;23.300;2023-03-31T04:56:25;94616.81;;;22.43;28.56
43217;BME280;60511;42.686;23.300;2023-03-31T04:58:26;94611.53;;;22.46;28.06
43217;BME280;60511;42.686;23.300;2023-03-31T05:00:27;94596.81;;;22.44;28.12
43217;BME280;60511;42.686;23.300;2023-03-31T05:02:28;94587.31;;;22.34;27.86
43217;BME280;60511;42.686;23.300;2023-03-31T05:04:28;94577.47;;;22.26;28.07
43217;BME280;60511;42.686;23.300;2023-03-31T05:06:29;94460.06;;;21.53;27.90
43217;BME280;60511;42.686;23.300;2023-03-31T05:08:30;94398.16;;;21.12;27.89
43217;BME280;60511;42.686;23.300;2023-03-31T05:10:32;94536.56;;;22.08;27.96
43217;BME280;60511;42.686;23.300;2023-03-31T05:12:36;94611.53;;;22.46;28.30
43217;BME280;60511;42.686;23.300;2023-03-31T05:14:37;94569.22;;;22.35;28.13
43217;BME280;60511;42.686;23.300;2023-03-31T05:16:37;94561.75;;;22.28;28.12
43217;BME280;60511;42.686;23.300;2023-03-31T05:18:37;94590.38;;;22.49;27.80
43217;BME280;60511;42.686;23.300;2023-03-31T05:20:38;94566.63;;;22.38;28.18
43217;BME280;60511;42.686;23.300;2023-03-31T05:22:39;94516.72;;;22.00;28.07
43217;BME280;60511;42.686;23.300;2023-03-31T05:24:39;94599.94;;;22.46;28.29
43217;BME280;60511;42.686;23.300;2023-03-31T05:26:40;94535.56;;;22.00;28.09
43217;BME280;60511;42.686;23.300;2023-03-31T05:28:41;94551.34;;;22.14;28.04
43217;BME280;60511;42.686;23.300;2023-03-31T05:30:41;94599.19;;;22.45;29.07
43217;BME280;60511;42.686;23.300;2023-03-31T05:32:42;94572.22;;;22.45;28.98
43217;BME280;60511;42.686;23.300;2023-03-31T05:34:42;94573.59;;;22.39;28.35
43217;BME280;60511;42.686;23.300;2023-03-31T05:36:43;94588.81;;;22.48;28.49
43217;BME280;60511;42.686;23.300;2023-03-31T05:38:43;94512.03;;;21.97;28.35
43217;BME280;60511;42.686;23.300;2023-03-31T05:40:43;94593.50;;;22.51;28.26
43217;BME280;60511;42.686;23.300;2023-03-31T05:42:44;94571.50;;;22.49;28.31
43217;BME280;60511;42.686;23.300;2023-03-31T05:44:44;94542.00;;;22.40;28.11
43217;BME280;60511;42.686;23.300;2023-03-31T05:46:45;94562.97;;;22.46;27.84
43217;BME280;60511;42.686;23.300;2023-03-31T05:48:46;94571.31;;;22.57;28.07
43217;BME280;60511;42.686;23.300;2023-03-31T05:50:46;94535.22;;;22.30;27.78
43217;BME280;60511;42.686;23.300;2023-03-31T05:52:47;94580.22;;;22.58;27.61
43217;BME280;60511;42.686;23.300;2023-03-31T05:54:47;94468.72;;;21.90;27.69
43217;BME280;60511;42.686;23.300;2023-03-31T05:56:47;94527.03;;;22.26;28.04
43217;BME280;60511;42.686;23.300;2023-03-31T05:58:48;94561.31;;;22.42;27.86
43217;BME280;60511;42.686;23.300;2023-03-31T06:00:48;94594.22;;;22.63;27.63
43217;BME280;60511;42.686;23.300;2023-03-31T06:02:49;94590.38;;;22.64;27.79
43217;BME280;60511;42.686;23.300;2023-03-31T06:04:50;94520.31;;;22.20;27.90
43217;BME280;60511;42.686;23.300;2023-03-31T06:06:51;94582.72;;;22.66;27.84
43217;BME280;60511;42.686;23.300;2023-03-31T06:08:53;94594.72;;;22.69;27.91
43217;BME280;60511;42.686;23.300;2023-03-31T06:10:53;94596.22;;;22.66;27.62
43217;BME280;60511;42.686;23.300;2023-03-31T06:12:53;94568.72;;;22.61;28.07
43217;BME280;60511;42.686;23.300;2023-03-31T06:14:54;94589.44;;;22.73;28.03
43217;BME280;60511;42.686;23.300;2023-03-31T06:16:54;94591.69;;;22.71;27.82
43217;BME280;60511;42.686;23.300;2023-03-31T06:18:55;94488.81;;;22.08;27.91
43217;BME280;60511;42.686;23.300;2023-03-31T06:20:56;94584.28;;;22.67;27.81
43217;BME280;60511;42.686;23.300;2023-03-31T06:22:56;94459.94;;;21.93;28.01
43217;BME280;60511;42.686;23.300;2023-03-31T06:24:57;94594.41;;;22.71;27.81
43217;BME280;60511;42.686;23.300;2023-03-31T06:26:57;94564.38;;;22.72;28.01
43217;BME280;60511;42.686;23.300;2023-03-31T06:29:00;94526.16;;;22.38;28.04
43217;BME280;60511;42.686;23.300;2023-03-31T06:31:12;94572.72;;;22.67;27.82
43217;BME280;60511;42.686;23.300;2023-03-31T06:33:13;94578.72;;;22.76;28.21
43217;BME280;60511;42.686;23.300;2023-03-31T06:35:13;94579.50;;;22.77;27.84
43217;BME280;60511;42.686;23.300;2023-03-31T06:37:13;94530.44;;;22.39;27.79
43217;BME280;60511;42.686;23.300;2023-03-31T06:39:14;94583.75;;;22.78;27.83
43217;BME280;60511;42.686;23.300;2023-03-31T06:41:16;94584.47;;;22.75;27.96
43217;BME280;60511;42.686;23.300;2023-03-31T06:43:16;94498.19;;;22.15;28.03
43217;BME280;60511;42.686;23.300;2023-03-31T06:45:17;94577.16;;;22.75;27.80
43217;BME280;60511;42.686;23.300;2023-03-31T06:47:17;94591.78;;;22.74;28.21
43217;BME280;60511;42.686;23.300;2023-03-31T06:49:17;94554.69;;;22.55;27.87
43217;BME280;60511;42.686;23.300;2023-03-31T06:51:19;94536.63;;;22.56;28.09
43217;BME280;60511;42.686;23.300;2023-03-31T06:53:20;94601.88;;;22.77;28.06
43217;BME280;60511;42.686;23.300;2023-03-31T06:55:23;94598.50;;;22.80;27.97
43217;BME280;60511;42.686;23.300;2023-03-31T06:57:23;94597.25;;;22.78;28.14
43217;BME280;60511;42.686;23.300;2023-03-31T06:59:24;94549.16;;;22.48;27.89
43217;BME280;60511;42.686;23.300;2023-03-31T07:01:25;94588.38;;;22.77;27.79
43217;BME280;60511;42.686;23.300;2023-03-31T07:03:25;94593.44;;;22.79;27.85
43217;BME280;60511;42.686;23.300;2023-03-31T07:05:26;94566.44;;;22.79;27.76
43217;BME280;60511;42.686;23.300;2023-03-31T07:07:30;94407.19;;;21.76;28.08
43217;BME280;60511;42.686;23.300;2023-03-31T07:09:31;94543.91;;;22.71;28.20
43217;BME280;60511;42.686;23.300;2023-03-31T07:11:31;94523.03;;;22.68;27.90
43217;BME280;60511;42.686;23.300;2023-03-31T07:13:32;94548.25;;;22.76;27.70
43217;BME280;60511;42.686;23.300;2023-03-31T07:15:32;94545.56;;;22.76;27.80
43217;BME280;60511;42.686;23.300;2023-03-31T07:17:33;94486.16;;;22.40;27.95
43217;BME280;60511;42.686;23.300;2023-03-31T07:19:33;94488.84;;;22.56;27.84
43217;BME280;60511;42.686;23.300;2023-03-31T07:21:36;94533.19;;;22.91;27.83
43217;BME280;60511;42.686;23.300;2023-03-31T07:23:37;94483.44;;;22.56;27.68
43217;BME280;60511;42.686;23.300;2023-03-31T07:25:38;94449.88;;;22.38;27.95
43217;BME280;60511;42.686;23.300;2023-03-31T07:27:38;94469.88;;;22.53;28.07
43217;BME280;60511;42.686;23.300;2023-03-31T07:29:39;94517.88;;;22.79;28.07
43217;BME280;60511;42.686;23.300;2023-03-31T07:31:39;94544.41;;;22.93;28.03
43217;BME280;60511;42.686;23.300;2023-03-31T07:33:40;94535.94;;;22.94;27.93
43217;BME280;60511;42.686;23.300;2023-03-31T07:35:41;94537.78;;;22.90;27.92
43217;BME280;60511;42.686;23.300;2023-03-31T07:37:43;94460.50;;;22.46;28.15
43217;BME280;60511;42.686;23.300;2023-03-31T07:39:44;94504.06;;;22.64;28.27
43217;BME280;60511;42.686;23.300;2023-03-31T07:41:45;94537.44;;;22.92;28.16
43217;BME280;60511;42.686;23.300;2023-03-31T07:43:45;94532.47;;;22.94;28.00
43217;BME280;60511;42.686;23.300;2023-03-31T07:45:46;94417.84;;;22.20;28.16
43217;BME280;60511;42.686;23.300;2023-03-31T07:47:47;94526.50;;;22.84;28.29
43217;BME280;60511;42.686;23.300;2023-03-31T07:49:48;94528.13;;;22.89;28.09
43217;BME280;60511;42.686;23.300;2023-03-31T07:51:50;94217.56;;;20.70;28.34
43217;BME280;60511;42.686;23.300;2023-03-31T07:53:51;94494.75;;;22.62;28.51
43217;BME280;60511;42.686;23.300;2023-03-31T07:55:51;94498.25;;;22.62;28.53
43217;BME280;60511;42.686;23.300;2023-03-31T07:57:52;94532.47;;;22.94;28.94
43217;BME280;60511;42.686;23.300;2023-03-31T07:59:52;94491.88;;;22.71;28.87
43217;BME280;60511;42.686;23.300;2023-03-31T08:01:52;94455.00;;;22.43;29.03
43217;BME280;60511;42.686;23.300;2023-03-31T08:03:53;94433.19;;;22.32;28.97
43217;BME280;60511;42.686;23.300;2023-03-31T08:05:54;94518.63;;;22.95;29.22
43217;BME280;60511;42.686;23.300;2023-03-31T08:07:55;94498.44;;;22.89;29.21
43217;BME280;60511;42.686;23.300;2023-03-31T08:09:56;94455.41;;;22.61;29.14
43217;BME280;60511;42.686;23.300;2023-03-31T08:11:57;94488.44;;;22.90;29.06
43217;BME280;60511;42.686;23.300;2023-03-31T08:13:58;94497.84;;;22.80;28.95
43217;BME280;60511;42.686;23.300;2023-03-31T08:15:58;94523.31;;;22.98;29.19
43217;BME280;60511;42.686;23.300;2023-03-31T08:17:59;94513.31;;;22.99;29.17
43217;BME280;60511;42.686;23.300;2023-03-31T08:19:59;94494.53;;;22.86;29.28
43217;BME280;60511;42.686;23.300;2023-03-31T08:22:01;94514.00;;;22.96;29.35
43217;BME280;60511;42.686;23.300;2023-03-31T08:24:01;94422.31;;;22.44;29.30
43217;BME280;60511;42.686;23.300;2023-03-31T08:26:17;94505.66;;;23.01;29.33
43217;BME280;60511;42.686;23.300;2023-03-31T08:28:17;94516.78;;;22.99;29.13
43217;BME280;60511;42.686;23.300;2023-03-31T08:30:19;94478.91;;;22.76;29.26
43217;BME280;60511;42.686;23.300;2023-03-31T08:32:22;94524.13;;;22.99;29.34
43217;BME280;60511;42.686;23.300;2023-03-31T08:34:26;94512.16;;;23.00;28.93
43217;BME280;60511;42.686;23.300;2023-03-31T08:36:28;94462.63;;;22.73;28.74
43217;BME280;60511;42.686;23.300;2023-03-31T08:38:28;94428.78;;;22.59;29.09
43217;BME280;60511;42.686;23.300;2023-03-31T08:40:30;94505.41;;;23.06;28.90
43217;BME280;60511;42.686;23.300;2023-03-31T08:42:39;94470.38;;;22.74;29.10
43217;BME280;60511;42.686;23.300;2023-03-31T08:44:50;94497.28;;;23.06;28.83
43217;BME280;60511;42.686;23.300;2023-03-31T08:46:55;94511.66;;;23.10;29.04
43217;BME280;60511;42.686;23.300;2023-03-31T08:48:57;94515.06;;;23.07;28.80
43217;BME280;60511;42.686;23.300;2023-03-31T08:51:15;94445.50;;;22.65;29.00
43217;BME280;60511;42.686;23.300;2023-03-31T08:53:30;94499.34;;;23.13;28.95
43217;BME280;60511;42.686;23.300;2023-03-31T08:55:48;94478.56;;;23.13;28.70
43217;BME280;60511;42.686;23.300;2023-03-31T08:58:13;94476.97;;;23.12;28.80
43217;BME280;60511;42.686;23.300;2023-03-31T09:00:18;94477.28;;;23.07;28.58
43217;BME280;60511;42.686;23.300;2023-03-31T09:05:08;94468.25;;;23.19;28.62
43217;BME280;60511;42.686;23.300;2023-03-31T09:09:37;94457.16;;;23.24;28.67
43217;BME280;60511;42.686;23.300;2023-03-31T09:12:05;94469.19;;;23.26;28.91
43217;BME280;60511;42.686;23.300;2023-03-31T09:14:28;94464.13;;;23.25;28.86
43217;BME280;60511;42.686;23.300;2023-03-31T09:17:05;94463.00;;;23.26;28.77
43217;BME280;60511;42.686;23.300;2023-03-31T09:19:19;94387.09;;;22.73;28.72
43217;BME280;60511;42.686;23.300;2023-03-31T09:23:30;94445.22;;;23.05;28.46
43217;BME280;60511;42.686;23.300;2023-03-31T09:25:35;94468.81;;;23.28;28.49
43217;BME280;60511;42.686;23.300;2023-03-31T09:27:39;94460.31;;;23.26;28.57
43217;BME280;60511;42.686;23.300;2023-03-31T09:29:45;94317.25;;;22.32;28.46
43217;BME280;60511;42.686;23.300;2023-03-31T09:31:48;94405.75;;;22.81;28.65
43217;BME280;60511;42.686;23.300;2023-03-31T09:33:50;94476.06;;;23.24;28.48
43217;BME280;60511;42.686;23.300;2023-03-31T09:35:51;94466.06;;;23.24;28.77
43217;BME280;60511;42.686;23.300;2023-03-31T09:37:52;94435.81;;;22.99;28.65
43217;BME280;60511;42.686;23.300;2023-03-31T09:39:53;94463.34;;;23.24;28.48
43217;BME280;60511;42.686;23.300;2023-03-31T09:41:53;94432.78;;;23.01;28.52
43217;BME280;60511;42.686;23.300;2023-03-31T09:43:54;94400.78;;;22.83;28.63
43217;BME280;60511;42.686;23.300;2023-03-31T09:45:56;94452.56;;;23.24;28.63
43217;BME280;60511;42.686;23.300;2023-03-31T09:47:58;94358.53;;;22.72;28.55
43217;BME280;60511;42.686;23.300;2023-03-31T09:50:00;94453.75;;;23.27;28.52
43217;BME280;60511;42.686;23.300;2023-03-31T09:52:06;94430.41;;;23.15;28.45
43217;BME280;60511;42.686;23.300;2023-03-31T09:54:27;94377.91;;;22.77;28.59
43217;BME280;60511;42.686;23.300;2023-03-31T09:56:33;94444.09;;;23.26;28.43
43217;BME280;60511;42.686;23.300;2023-03-31T09:58:45;94369.47;;;22.79;28.59
43217;BME280;60511;42.686;23.300;2023-03-31T10:00:59;94446.50;;;23.31;28.59
43217;BME280;60511;42.686;23.300;2023-03-31T10:03:03;94348.97;;;22.74;28.42
43217;BME280;60511;42.686;23.300;2023-03-31T10:05:18;94420.56;;;23.26;28.29
43217;BME280;60511;42.686;23.300;2023-03-31T10:07:23;94390.38;;;23.01;28.38
43217;BME280;60511;42.686;23.300;2023-03-31T10:09:32;94430.69;;;23.30;28.41
43217;BME280;60511;42.686;23.300;2023-03-31T10:11:33;94410.06;;;23.21;28.32
43217;BME280;60511;42.686;23.300;2023-03-31T10:13:44;94415.59;;;23.29;28.38
43217;BME280;60511;42.686;23.300;2023-03-31T10:15:45;94424.56;;;23.33;28.06
43217;BME280;60511;42.686;23.300;2023-03-31T10:17:46;94389.91;;;23.15;28.09
43217;BME280;60511;42.686;23.300;2023-03-31T10:19:51;94330.94;;;22.78;28.19
43217;BME280;60511;42.686;23.300;2023-03-31T10:23:58;94408.34;;;23.33;28.04
43217;BME280;60511;42.686;23.300;2023-03-31T10:26:01;94411.81;;;23.33;28.25
43217;BME280;60511;42.686;23.300;2023-03-31T10:28:02;94394.22;;;23.20;27.95
43217;BME280;60511;42.686;23.300;2023-03-31T10:30:10;94411.81;;;23.33;27.93
43217;BME280;60511;42.686;23.300;2023-03-31T10:34:14;94410.38;;;23.39;27.97
43217;BME280;60511;42.686;23.300;2023-03-31T10:36:21;94406.50;;;23.37;28.01
43217;BME280;60511;42.686;23.300;2023-03-31T10:38:35;94333.19;;;22.96;28.21
43217;BME280;60511;42.686;23.300;2023-03-31T10:40:36;94399.47;;;23.32;28.16
43217;BME280;60511;42.686;23.300;2023-03-31T10:42:37;94391.06;;;23.37;27.91
43217;BME280;60511;42.686;23.300;2023-03-31T10:44:38;94398.03;;;23.38;27.93
43217;BME280;60511;42.686;23.300;2023-03-31T10:46:49;94390.72;;;23.39;28.12
43217;BME280;60511;42.686;23.300;2023-03-31T10:48:51;94373.00;;;23.41;28.01
43217;BME280;60511;42.686;23.300;2023-03-31T10:50:53;94386.88;;;23.40;28.33
43217;BME280;60511;42.686;23.300;2023-03-31T10:53:21;94310.47;;;22.97;28.40
43217;BME280;60511;42.686;23.300;2023-03-31T10:55:25;94375.34;;;23.43;28.50
43217;BME280;60511;42.686;23.300;2023-03-31T10:57:51;94390.34;;;23.40;28.25
43217;BME280;60511;42.686;23.300;2023-03-31T11:16:46;94348.28;;;23.39;27.96
43217;BME280;60511;42.686;23.300;2023-03-31T11:25:51;94345.22;;;23.41;28.18
43217;BME280;60511;42.686;23.300;2023-03-31T11:28:24;94330.16;;;23.40;27.93
43217;BME280;60511;42.686;23.300;2023-03-31T11:32:37;94317.94;;;23.46;27.88
43217;BME280;60511;42.686;23.300;2023-03-31T11:41:57;94329.44;;;23.43;28.05
43217;BME280;60511;42.686;23.300;2023-03-31T11:44:01;94248.81;;;22.99;28.19
43217;BME280;60511;42.686;23.300;2023-03-31T11:46:20;94314.00;;;23.43;28.14
43217;BME280;60511;42.686;23.300;2023-03-31T11:49:02;94312.53;;;23.46;28.15
43217;BME280;60511;42.686;23.300;2023-03-31T11:51:08;94298.41;;;23.33;28.20
43217;BME280;60511;42.686;23.300;2023-03-31T11:53:16;94301.72;;;23.46;28.41
43217;BME280;60511;42.686;23.300;2023-03-31T11:55:19;94308.25;;;23.45;28.32
43217;BME280;60511;42.686;23.300;2023-03-31T11:59:26;94287.66;;;23.37;27.86
43217;BME280;60511;42.686;23.300;2023-03-31T12:03:50;94225.75;;;23.01;28.10
43217;BME280;60511;42.686;23.300;2023-03-31T12:06:00;94285.88;;;23.44;27.87
43217;BME280;60511;42.686;23.300;2023-03-31T12:08:05;94288.63;;;23.48;28.07
43217;BME280;60511;42.686;23.300;2023-03-31T12:12:32;94287.47;;;23.49;28.07
43217;BME280;60511;42.686;23.300;2023-03-31T12:14:48;94243.97;;;23.31;28.23
43217;BME280;60511;42.686;23.300;2023-03-31T12:16:54;94251.44;;;23.38;28.02
43217;BME280;60511;42.686;23.300;2023-03-31T12:21:04;94239.06;;;23.37;28.16
43217;BME280;60511;42.686;23.300;2023-03-31T12:23:10;94197.53;;;22.99;28.04
43217;BME280;60511;42.686;23.300;2023-03-31T12:25:14;94232.03;;;23.32;27.95